sensor_id;sensor_type;location;lat;lon;timestamp;pressure;altitude;pressure_sealevel;temperature;humidity
50652;BME280;61429;52.086;5.240;2022-10-31T05:51:54;101912.0;;;12.7;83.97
50652;BME280;61429;52.086;5.240;2022-10-31T05:53:31;101906.0;;;12.8;82.54
50652;BME280;61429;52.086;5.240;2022-10-31T05:55:07;101900.0;;;13.06;82.02
50652;BME280;61429;52.086;5.240;2022-10-31T05:56:44;101899.0;;;13.18;81.77
50652;BME280;61429;52.086;5.240;2022-10-31T05:59:57;101898.0;;;13.47;81.58
50652;BME280;61429;52.086;5.240;2022-10-31T06:01:33;101898.0;;;13.46;79.36
50652;BME280;61429;52.086;5.240;2022-10-31T06:03:10;101891.0;;;13.58;80.09
50652;BME280;61429;52.086;5.240;2022-10-31T06:06:22;101893.0;;;13.77;79.52
50652;BME280;61429;52.086;5.240;2022-10-31T06:07:58;101893.0;;;13.74;78.49
50652;BME280;61429;52.086;5.240;2022-10-31T06:09:34;101888.0;;;13.68;77.95
50652;BME280;61429;52.086;5.240;2022-10-31T06:12:47;101887.0;;;13.76;78.41
50652;BME280;61429;52.086;5.240;2022-10-31T06:14:24;101890.0;;;13.68;77.88
50652;BME280;61429;52.086;5.240;2022-10-31T06:16:00;101893.0;;;13.45;79.05
50652;BME280;61429;52.086;5.240;2022-10-31T06:17:36;101893.0;;;13.4;79.42
50652;BME280;61429;52.086;5.240;2022-10-31T06:20:48;101898.0;;;13.32;80.19
50652;BME280;61429;52.086;5.240;2022-10-31T06:22:24;101896.0;;;13.24;80.27
50652;BME280;61429;52.086;5.240;2022-10-31T06:24:02;101894.0;;;13.09;80.63
50652;BME280;61429;52.086;5.240;2022-10-31T06:27:15;101899.0;;;13.04;81.02
50652;BME280;61429;52.086;5.240;2022-10-31T06:28:51;101901.0;;;13.03;81.05
50652;BME280;61429;52.086;5.240;2022-10-31T06:30:27;101906.0;;;12.84;82.01
50652;BME280;61429;52.086;5.240;2022-10-31T06:33:40;101906.0;;;12.87;81.88
50652;BME280;61429;52.086;5.240;2022-10-31T06:35:17;101905.0;;;12.78;82.68
50652;BME280;61429;52.086;5.240;2022-10-31T06:36:53;101909.0;;;12.65;83.65
50652;BME280;61429;52.086;5.240;2022-10-31T06:38:29;101912.0;;;12.57;83.89
50652;BME280;61429;52.086;5.240;2022-10-31T06:41:42;101907.0;;;12.63;83.8
50652;BME280;61429;52.086;5.240;2022-10-31T06:43:19;101911.0;;;12.5;84.18
50652;BME280;61429;52.086;5.240;2022-10-31T06:44:56;101912.0;;;12.64;84.16
50652;BME280;61429;52.086;5.240;2022-10-31T06:48:08;101907.0;;;12.65;84.55
50652;BME280;61429;52.086;5.240;2022-10-31T06:49:44;101906.0;;;12.66;84.72
50652;BME280;61429;52.086;5.240;2022-10-31T06:51:20;101907.0;;;12.76;84.42
50652;BME280;61429;52.086;5.240;2022-10-31T06:54:35;101912.0;;;12.8;84.22
50652;BME280;61429;52.086;5.240;2022-10-31T06:56:11;101913.0;;;12.69;84.87
50652;BME280;61429;52.086;5.240;2022-10-31T06:57:49;101911.0;;;12.75;84.54
50652;BME280;61429;52.086;5.240;2022-10-31T06:59:26;101912.0;;;12.79;84.48
50652;BME280;61429;52.086;5.240;2022-10-31T07:02:38;101913.0;;;12.92;84.28
50652;BME280;61429;52.086;5.240;2022-10-31T07:04:14;101919.0;;;12.99;84.33
50652;BME280;61429;52.086;5.240;2022-10-31T07:05:51;101912.0;;;12.98;84.51
50652;BME280;61429;52.086;5.240;2022-10-31T07:09:03;101912.0;;;13.09;84.18
50652;BME280;61429;52.086;5.240;2022-10-31T07:10:41;101916.0;;;13.13;84.32
50652;BME280;61429;52.086;5.240;2022-10-31T07:12:18;101916.0;;;13.2;83.99
50652;BME280;61429;52.086;5.240;2022-10-31T07:15:33;101911.0;;;13.39;83.71
50652;BME280;61429;52.086;5.240;2022-10-31T07:17:14;101905.0;;;13.47;83.3
50652;BME280;61429;52.086;5.240;2022-10-31T07:18:50;101903.0;;;13.59;82.84
50652;BME280;61429;52.086;5.240;2022-10-31T07:20:27;101905.0;;;13.56;82.13
50652;BME280;61429;52.086;5.240;2022-10-31T07:23:39;101905.0;;;13.59;82.22
50652;BME280;61429;52.086;5.240;2022-10-31T07:25:16;101909.0;;;13.75;81.72
50652;BME280;61429;52.086;5.240;2022-10-31T07:26:52;101914.0;;;13.52;82.1
50652;BME280;61429;52.086;5.240;2022-10-31T07:30:10;101920.0;;;13.38;82.67
50652;BME280;61429;52.086;5.240;2022-10-31T07:31:48;101919.0;;;13.44;82.62
50652;BME280;61429;52.086;5.240;2022-10-31T07:33:26;101919.0;;;13.5;82.73
50652;BME280;61429;52.086;5.240;2022-10-31T07:35:02;101920.0;;;13.43;82.56
50652;BME280;61429;52.086;5.240;2022-10-31T07:38:15;101920.0;;;13.42;83.36
50652;BME280;61429;52.086;5.240;2022-10-31T07:39:51;101918.0;;;13.45;83.03
50652;BME280;61429;52.086;5.240;2022-10-31T07:41:28;101921.0;;;13.42;83.24
50652;BME280;61429;52.086;5.240;2022-10-31T07:44:41;101922.0;;;13.41;83.64
50652;BME280;61429;52.086;5.240;2022-10-31T07:46:17;101920.0;;;13.53;83.58
50652;BME280;61429;52.086;5.240;2022-10-31T07:47:53;101920.0;;;13.53;83.54
50652;BME280;61429;52.086;5.240;2022-10-31T07:51:07;101922.0;;;13.51;84.0
50652;BME280;61429;52.086;5.240;2022-10-31T07:52:43;101921.0;;;13.59;84.06
50652;BME280;61429;52.086;5.240;2022-10-31T07:54:20;101927.0;;;13.76;83.37
50652;BME280;61429;52.086;5.240;2022-10-31T07:55:56;101927.0;;;13.83;83.26
50652;BME280;61429;52.086;5.240;2022-10-31T07:59:08;101930.0;;;13.91;82.66
50652;BME280;61429;52.086;5.240;2022-10-31T08:00:46;101934.0;;;14.0;82.41
50652;BME280;61429;52.086;5.240;2022-10-31T08:02:23;101933.0;;;14.01;82.13
50652;BME280;61429;52.086;5.240;2022-10-31T08:05:36;101934.0;;;14.07;82.38
50652;BME280;61429;52.086;5.240;2022-10-31T08:07:13;101932.0;;;14.17;82.07
50652;BME280;61429;52.086;5.240;2022-10-31T08:08:49;101930.0;;;14.36;81.78
50652;BME280;61429;52.086;5.240;2022-10-31T08:12:03;101933.0;;;14.52;81.3
50652;BME280;61429;52.086;5.240;2022-10-31T08:13:40;101933.0;;;14.63;81.02
50652;BME280;61429;52.086;5.240;2022-10-31T08:15:16;101936.0;;;14.89;79.74
50652;BME280;61429;52.086;5.240;2022-10-31T08:16:52;101935.0;;;15.07;78.83
50652;BME280;61429;52.086;5.240;2022-10-31T08:20:07;101940.0;;;15.01;78.55
50652;BME280;61429;52.086;5.240;2022-10-31T08:21:43;101941.0;;;14.99;78.86
50652;BME280;61429;52.086;5.240;2022-10-31T08:23:20;101936.0;;;15.11;78.83
50652;BME280;61429;52.086;5.240;2022-10-31T08:26:32;101931.0;;;15.16;78.99
50652;BME280;61429;52.086;5.240;2022-10-31T08:28:10;101925.0;;;15.17;78.53
50652;BME280;61429;52.086;5.240;2022-10-31T08:29:47;101930.0;;;15.07;79.52
50652;BME280;61429;52.086;5.240;2022-10-31T08:31:26;101931.0;;;15.19;79.23
50652;BME280;61429;52.086;5.240;2022-10-31T08:34:41;101927.0;;;15.32;79.0
50652;BME280;61429;52.086;5.240;2022-10-31T08:36:17;101930.0;;;15.4;78.69
50652;BME280;61429;52.086;5.240;2022-10-31T08:37:54;101927.0;;;15.3;79.31
50652;BME280;61429;52.086;5.240;2022-10-31T08:41:08;101931.0;;;15.24;79.83
50652;BME280;61429;52.086;5.240;2022-10-31T08:42:44;101932.0;;;15.33;79.58
50652;BME280;61429;52.086;5.240;2022-10-31T08:44:21;101932.0;;;15.36;79.37
50652;BME280;61429;52.086;5.240;2022-10-31T08:47:33;101930.0;;;15.35;79.47
50652;BME280;61429;52.086;5.240;2022-10-31T08:49:09;101923.0;;;15.32;79.97
50652;BME280;61429;52.086;5.240;2022-10-31T08:50:46;101924.0;;;15.28;79.98
50652;BME280;61429;52.086;5.240;2022-10-31T08:52:23;101920.0;;;15.23;80.27
50652;BME280;61429;52.086;5.240;2022-10-31T08:55:37;101918.0;;;15.26;80.11
50652;BME280;61429;52.086;5.240;2022-10-31T08:57:14;101912.0;;;15.27;80.2
50652;BME280;61429;52.086;5.240;2022-10-31T08:58:52;101911.0;;;15.32;80.14
50652;BME280;61429;52.086;5.240;2022-10-31T09:02:05;101905.0;;;15.27;80.27
50652;BME280;61429;52.086;5.240;2022-10-31T09:03:41;101909.0;;;15.38;80.16
50652;BME280;61429;52.086;5.240;2022-10-31T09:05:17;101903.0;;;15.36;80.5
50652;BME280;61429;52.086;5.240;2022-10-31T09:08:30;101900.0;;;15.48;80.17
50652;BME280;61429;52.086;5.240;2022-10-31T09:10:07;101899.0;;;15.47;80.47
50652;BME280;61429;52.086;5.240;2022-10-31T09:11:43;101900.0;;;15.41;80.81
50652;BME280;61429;52.086;5.240;2022-10-31T09:13:21;101893.0;;;15.46;80.56
50652;BME280;61429;52.086;5.240;2022-10-31T09:16:33;101894.0;;;15.39;80.89
50652;BME280;61429;52.086;5.240;2022-10-31T09:18:10;101890.0;;;15.46;81.02
50652;BME280;61429;52.086;5.240;2022-10-31T09:19:46;101886.0;;;15.46;81.19
50652;BME280;61429;52.086;5.240;2022-10-31T09:23:00;101875.0;;;15.58;80.97
50652;BME280;61429;52.086;5.240;2022-10-31T09:24:38;101873.0;;;15.64;81.12
50652;BME280;61429;52.086;5.240;2022-10-31T09:26:14;101869.0;;;15.93;79.69
50652;BME280;61429;52.086;5.240;2022-10-31T09:29:26;101867.0;;;16.11;79.0
50652;BME280;61429;52.086;5.240;2022-10-31T09:31:02;101860.0;;;16.13;79.22
50652;BME280;61429;52.086;5.240;2022-10-31T09:32:38;101858.0;;;16.11;79.98
50652;BME280;61429;52.086;5.240;2022-10-31T09:34:15;101860.0;;;16.11;79.44
50652;BME280;61429;52.086;5.240;2022-10-31T09:37:27;101862.0;;;16.3;78.91
50652;BME280;61429;52.086;5.240;2022-10-31T09:39:03;101861.0;;;16.36;78.47
50652;BME280;61429;52.086;5.240;2022-10-31T09:40:41;101864.0;;;16.52;77.77
50652;BME280;61429;52.086;5.240;2022-10-31T09:44:28;101859.0;;;16.66;77.36
50652;BME280;61429;52.086;5.240;2022-10-31T09:46:18;101864.0;;;16.63;77.36
50652;BME280;61429;52.086;5.240;2022-10-31T09:48:32;101861.0;;;16.86;76.41
50652;BME280;61429;52.086;5.240;2022-10-31T09:50:17;101857.0;;;16.79;76.72
50652;BME280;61429;52.086;5.240;2022-10-31T09:52:11;101860.0;;;16.75;77.33
50652;BME280;61429;52.086;5.240;2022-10-31T09:53:52;101856.0;;;16.86;76.5
50652;BME280;61429;52.086;5.240;2022-10-31T09:55:36;101852.0;;;16.81;76.83
50652;BME280;61429;52.086;5.240;2022-10-31T09:57:17;101850.0;;;16.84;76.77
50652;BME280;61429;52.086;5.240;2022-10-31T10:00:40;101843.0;;;16.82;76.63
50652;BME280;61429;52.086;5.240;2022-10-31T10:02:23;101841.0;;;16.96;75.86
50652;BME280;61429;52.086;5.240;2022-10-31T10:04:03;101844.0;;;16.95;75.62
50652;BME280;61429;52.086;5.240;2022-10-31T10:05:54;101846.0;;;17.09;75.24
50652;BME280;61429;52.086;5.240;2022-10-31T10:09:24;101844.0;;;17.13;75.02
50652;BME280;61429;52.086;5.240;2022-10-31T10:11:14;101846.0;;;17.3;74.0
50652;BME280;61429;52.086;5.240;2022-10-31T10:13:12;101837.0;;;17.34;73.89
50652;BME280;61429;52.086;5.240;2022-10-31T10:16:21;101832.0;;;17.38;73.61
50652;BME280;61429;52.086;5.240;2022-10-31T10:18:09;101823.0;;;17.61;72.7
50652;BME280;61429;52.086;5.240;2022-10-31T10:21:54;101826.0;;;17.45;73.74
50652;BME280;61429;52.086;5.240;2022-10-31T10:23:51;101827.0;;;17.7;72.64
50652;BME280;61429;52.086;5.240;2022-10-31T10:25:37;101825.0;;;17.71;72.49
50652;BME280;61429;52.086;5.240;2022-10-31T10:27:18;101823.0;;;17.81;72.16
50652;BME280;61429;52.086;5.240;2022-10-31T10:29:03;101820.0;;;17.77;72.3
50652;BME280;61429;52.086;5.240;2022-10-31T10:30:58;101810.0;;;17.81;72.05
50652;BME280;61429;52.086;5.240;2022-10-31T10:34:22;101809.0;;;17.87;71.92
50652;BME280;61429;52.086;5.240;2022-10-31T10:36:05;101805.0;;;17.84;72.06
50652;BME280;61429;52.086;5.240;2022-10-31T10:37:46;101810.0;;;17.95;71.83
50652;BME280;61429;52.086;5.240;2022-10-31T10:39:27;101809.0;;;18.07;71.31
50652;BME280;61429;52.086;5.240;2022-10-31T10:41:14;101807.0;;;18.06;71.44
50652;BME280;61429;52.086;5.240;2022-10-31T10:48:06;101788.0;;;17.86;72.75
50652;BME280;61429;52.086;5.240;2022-10-31T10:49:47;101778.0;;;17.87;73.28
50652;BME280;61429;52.086;5.240;2022-10-31T10:53:30;101771.0;;;17.61;74.72
50652;BME280;61429;52.086;5.240;2022-10-31T10:55:22;101764.0;;;17.5;74.61
50652;BME280;61429;52.086;5.240;2022-10-31T10:57:09;101763.0;;;17.45;75.05
50652;BME280;61429;52.086;5.240;2022-10-31T10:58:51;101758.0;;;17.43;75.3
50652;BME280;61429;52.086;5.240;2022-10-31T11:00:30;101755.0;;;17.61;74.73
50652;BME280;61429;52.086;5.240;2022-10-31T11:02:18;101747.0;;;17.7;74.19
50652;BME280;61429;52.086;5.240;2022-10-31T11:05:41;101740.0;;;17.77;73.97
50652;BME280;61429;52.086;5.240;2022-10-31T11:07:22;101731.0;;;17.93;73.23
50652;BME280;61429;52.086;5.240;2022-10-31T11:09:09;101724.0;;;17.87;73.66
50652;BME280;61429;52.086;5.240;2022-10-31T11:10:56;101719.0;;;17.97;72.97
50652;BME280;61429;52.086;5.240;2022-10-31T11:12:33;101711.0;;;18.03;73.28
50652;BME280;61429;52.086;5.240;2022-10-31T11:15:53;101712.0;;;18.18;72.88
50652;BME280;61429;52.086;5.240;2022-10-31T11:17:37;101722.0;;;18.29;72.67
50652;BME280;61429;52.086;5.240;2022-10-31T11:19:17;101722.0;;;18.36;72.47
50652;BME280;61429;52.086;5.240;2022-10-31T11:21:04;101732.0;;;18.47;71.83
50652;BME280;61429;52.086;5.240;2022-10-31T11:24:21;101739.0;;;18.62;71.44
50652;BME280;61429;52.086;5.240;2022-10-31T11:25:59;101738.0;;;18.59;71.87
50652;BME280;61429;52.086;5.240;2022-10-31T11:27:36;101733.0;;;18.45;72.3
50652;BME280;61429;52.086;5.240;2022-10-31T11:29:15;101728.0;;;18.36;72.48
50652;BME280;61429;52.086;5.240;2022-10-31T11:32:33;101719.0;;;18.11;73.47
50652;BME280;61429;52.086;5.240;2022-10-31T11:34:15;101716.0;;;18.07;73.44
50652;BME280;61429;52.086;5.240;2022-10-31T11:35:54;101710.0;;;17.97;73.8
50652;BME280;61429;52.086;5.240;2022-10-31T11:39:16;101709.0;;;18.0;73.87
50652;BME280;61429;52.086;5.240;2022-10-31T11:40:58;101711.0;;;17.86;74.58
50652;BME280;61429;52.086;5.240;2022-10-31T11:42:41;101703.0;;;17.89;74.48
50652;BME280;61429;52.086;5.240;2022-10-31T11:44:19;101696.0;;;17.82;74.8
50652;BME280;61429;52.086;5.240;2022-10-31T11:45:58;101694.0;;;17.72;75.17
50652;BME280;61429;52.086;5.240;2022-10-31T11:49:15;101688.0;;;17.81;74.99
50652;BME280;61429;52.086;5.240;2022-10-31T11:50:56;101677.0;;;17.75;75.05
50652;BME280;61429;52.086;5.240;2022-10-31T11:52:33;101662.0;;;17.46;75.92
50652;BME280;61429;52.086;5.240;2022-10-31T11:56:09;101646.0;;;17.43;76.39
50652;BME280;61429;52.086;5.240;2022-10-31T11:57:48;101625.0;;;17.46;76.3
50652;BME280;61429;52.086;5.240;2022-10-31T11:59:27;101630.0;;;17.37;76.63
50652;BME280;61429;52.086;5.240;2022-10-31T12:01:05;101636.0;;;17.48;76.64
50652;BME280;61429;52.086;5.240;2022-10-31T12:02:42;101637.0;;;17.61;76.2
50652;BME280;61429;52.086;5.240;2022-10-31T12:07:47;101634.0;;;17.82;75.33
50652;BME280;61429;52.086;5.240;2022-10-31T12:09:26;101628.0;;;17.86;75.14
50652;BME280;61429;52.086;5.240;2022-10-31T12:11:10;101619.0;;;17.72;75.31
50652;BME280;61429;52.086;5.240;2022-10-31T12:13:17;101613.0;;;17.78;75.36
50652;BME280;61429;52.086;5.240;2022-10-31T12:17:30;101623.0;;;17.86;75.05
50652;BME280;61429;52.086;5.240;2022-10-31T12:21:10;101622.0;;;17.86;75.17
50652;BME280;61429;52.086;5.240;2022-10-31T12:24:51;101609.0;;;17.93;74.99
50652;BME280;61429;52.086;5.240;2022-10-31T12:26:42;101602.0;;;17.95;75.02
50652;BME280;61429;52.086;5.240;2022-10-31T12:28:40;101595.0;;;18.03;74.55
50652;BME280;61429;52.086;5.240;2022-10-31T12:30:24;101576.0;;;18.0;74.66
50652;BME280;61429;52.086;5.240;2022-10-31T12:32:17;101575.0;;;17.96;75.27
50652;BME280;61429;52.086;5.240;2022-10-31T12:36:15;101591.0;;;18.2;74.25
50652;BME280;61429;52.086;5.240;2022-10-31T12:38:14;101585.0;;;18.21;74.33
50652;BME280;61429;52.086;5.240;2022-10-31T12:40:33;101567.0;;;17.79;75.86
50652;BME280;61429;52.086;5.240;2022-10-31T12:44:37;101557.0;;;17.87;75.69
50652;BME280;61429;52.086;5.240;2022-10-31T12:46:25;101545.0;;;17.77;75.91
50652;BME280;61429;52.086;5.240;2022-10-31T12:48:19;101545.0;;;17.81;75.72
50652;BME280;61429;52.086;5.240;2022-10-31T12:50:16;101557.0;;;17.93;75.38
50652;BME280;61429;52.086;5.240;2022-10-31T12:52:04;101550.0;;;17.93;75.47
50652;BME280;61429;52.086;5.240;2022-10-31T12:54:03;101537.0;;;17.68;76.14
50652;BME280;61429;52.086;5.240;2022-10-31T12:55:58;101532.0;;;17.8;75.97
50652;BME280;61429;52.086;5.240;2022-10-31T12:57:41;101527.0;;;17.88;75.66
50652;BME280;61429;52.086;5.240;2022-10-31T12:59:29;101519.0;;;17.71;76.02
50652;BME280;61429;52.086;5.240;2022-10-31T13:02:51;101521.0;;;18.02;75.16
50652;BME280;61429;52.086;5.240;2022-10-31T13:04:38;101525.0;;;18.16;74.61
50652;BME280;61429;52.086;5.240;2022-10-31T13:06:20;101524.0;;;18.0;74.78
50652;BME280;61429;52.086;5.240;2022-10-31T13:08:04;101520.0;;;18.06;74.72
50652;BME280;61429;52.086;5.240;2022-10-31T13:09:47;101510.0;;;18.0;75.06
50652;BME280;61429;52.086;5.240;2022-10-31T13:13:16;101503.0;;;18.0;75.08
50652;BME280;61429;52.086;5.240;2022-10-31T13:15:05;101498.0;;;17.87;75.66
50652;BME280;61429;52.086;5.240;2022-10-31T13:16:49;101486.0;;;17.96;75.23
50652;BME280;61429;52.086;5.240;2022-10-31T13:18:29;101490.0;;;18.11;74.81
50652;BME280;61429;52.086;5.240;2022-10-31T13:20:17;101480.0;;;17.95;75.48
50652;BME280;61429;52.086;5.240;2022-10-31T13:23:43;101472.0;;;17.91;75.61
50652;BME280;61429;52.086;5.240;2022-10-31T13:25:24;101467.0;;;17.78;75.83
50652;BME280;61429;52.086;5.240;2022-10-31T13:27:03;101468.0;;;17.89;75.95
50652;BME280;61429;52.086;5.240;2022-10-31T13:28:49;101462.0;;;17.89;75.7
50652;BME280;61429;52.086;5.240;2022-10-31T13:32:10;101461.0;;;17.78;76.16
50652;BME280;61429;52.086;5.240;2022-10-31T13:33:49;101456.0;;;18.02;75.56
50652;BME280;61429;52.086;5.240;2022-10-31T13:35:36;101451.0;;;17.77;76.42
50652;BME280;61429;52.086;5.240;2022-10-31T13:37:29;101449.0;;;18.0;75.67
50652;BME280;61429;52.086;5.240;2022-10-31T13:39:21;101444.0;;;18.07;75.44
50652;BME280;61429;52.086;5.240;2022-10-31T13:41:09;101443.0;;;18.11;75.45
50652;BME280;61429;52.086;5.240;2022-10-31T13:44:37;101437.0;;;18.07;75.42
50652;BME280;61429;52.086;5.240;2022-10-31T13:46:24;101433.0;;;18.18;75.19
50652;BME280;61429;52.086;5.240;2022-10-31T13:48:20;101428.0;;;18.11;75.41
50652;BME280;61429;52.086;5.240;2022-10-31T13:50:26;101418.0;;;17.96;76.16
50652;BME280;61429;52.086;5.240;2022-10-31T13:52:12;101412.0;;;18.21;75.36
50652;BME280;61429;52.086;5.240;2022-10-31T13:54:00;101410.0;;;17.8;76.78
50652;BME280;61429;52.086;5.240;2022-10-31T13:55:40;101399.0;;;17.82;77.11
50652;BME280;61429;52.086;5.240;2022-10-31T13:59:04;101398.0;;;17.95;76.8
50652;BME280;61429;52.086;5.240;2022-10-31T14:00:43;101397.0;;;17.91;76.83
50652;BME280;61429;52.086;5.240;2022-10-31T14:02:25;101395.0;;;18.06;76.44
50652;BME280;61429;52.086;5.240;2022-10-31T14:04:05;101394.0;;;18.05;76.45
50652;BME280;61429;52.086;5.240;2022-10-31T14:07:20;101392.0;;;18.0;76.58
50652;BME280;61429;52.086;5.240;2022-10-31T14:08:57;101388.0;;;18.11;76.09
50652;BME280;61429;52.086;5.240;2022-10-31T14:10:36;101388.0;;;17.86;76.84
50652;BME280;61429;52.086;5.240;2022-10-31T14:14:11;101384.0;;;17.7;77.83
50652;BME280;61429;52.086;5.240;2022-10-31T14:15:54;101383.0;;;17.95;77.05
50652;BME280;61429;52.086;5.240;2022-10-31T14:17:38;101380.0;;;17.91;77.27
50652;BME280;61429;52.086;5.240;2022-10-31T14:19:28;101376.0;;;17.88;77.31
50652;BME280;61429;52.086;5.240;2022-10-31T14:21:15;101368.0;;;17.84;77.44
50652;BME280;61429;52.086;5.240;2022-10-31T14:22:52;101363.0;;;17.93;77.33
50652;BME280;61429;52.086;5.240;2022-10-31T14:26:30;101357.0;;;17.95;77.02
50652;BME280;61429;52.086;5.240;2022-10-31T14:28:21;101355.0;;;17.79;77.66
50652;BME280;61429;52.086;5.240;2022-10-31T14:30:12;101351.0;;;17.75;78.12
50652;BME280;61429;52.086;5.240;2022-10-31T14:31:53;101345.0;;;17.89;77.41
50652;BME280;61429;52.086;5.240;2022-10-31T14:33:32;101341.0;;;17.89;77.33
50652;BME280;61429;52.086;5.240;2022-10-31T14:37:01;101338.0;;;17.88;77.22
50652;BME280;61429;52.086;5.240;2022-10-31T14:39:02;101335.0;;;17.93;77.17
50652;BME280;61429;52.086;5.240;2022-10-31T14:40:55;101325.0;;;17.77;77.64
50652;BME280;61429;52.086;5.240;2022-10-31T14:42:57;101321.0;;;17.8;77.58
50652;BME280;61429;52.086;5.240;2022-10-31T14:45:01;101314.0;;;17.77;77.84
50652;BME280;61429;52.086;5.240;2022-10-31T14:46:50;101312.0;;;17.8;77.58
50652;BME280;61429;52.086;5.240;2022-10-31T14:48:46;101306.0;;;17.84;77.62
50652;BME280;61429;52.086;5.240;2022-10-31T14:50:44;101310.0;;;17.77;77.48
50652;BME280;61429;52.086;5.240;2022-10-31T14:52:24;101313.0;;;17.95;76.86
50652;BME280;61429;52.086;5.240;2022-10-31T14:55:42;101308.0;;;17.89;77.02
50652;BME280;61429;52.086;5.240;2022-10-31T14:57:23;101316.0;;;17.96;76.92
50652;BME280;61429;52.086;5.240;2022-10-31T14:59:06;101317.0;;;18.07;76.38
50652;BME280;61429;52.086;5.240;2022-10-31T15:00:54;101312.0;;;18.0;76.74
50652;BME280;61429;52.086;5.240;2022-10-31T15:04:34;101314.0;;;17.87;76.99
50652;BME280;61429;52.086;5.240;2022-10-31T15:06:13;101311.0;;;18.05;76.33
50652;BME280;61429;52.086;5.240;2022-10-31T15:07:53;101306.0;;;17.98;76.37
50652;BME280;61429;52.086;5.240;2022-10-31T15:09:31;101302.0;;;17.95;76.78
50652;BME280;61429;52.086;5.240;2022-10-31T15:11:11;101297.0;;;17.97;76.55
50652;BME280;61429;52.086;5.240;2022-10-31T15:14:26;101292.0;;;17.86;76.84
50652;BME280;61429;52.086;5.240;2022-10-31T15:16:08;101292.0;;;17.77;77.02
50652;BME280;61429;52.086;5.240;2022-10-31T15:17:52;101290.0;;;17.95;76.48
50652;BME280;61429;52.086;5.240;2022-10-31T15:19:30;101286.0;;;17.91;76.52
50652;BME280;61429;52.086;5.240;2022-10-31T15:22:46;101280.0;;;17.82;76.69
50652;BME280;61429;52.086;5.240;2022-10-31T15:24:26;101280.0;;;17.79;76.77
50652;BME280;61429;52.086;5.240;2022-10-31T15:26:06;101277.0;;;17.7;77.19
50652;BME280;61429;52.086;5.240;2022-10-31T15:27:43;101267.0;;;17.59;77.61
50652;BME280;61429;52.086;5.240;2022-10-31T15:31:02;101267.0;;;17.59;77.47
50652;BME280;61429;52.086;5.240;2022-10-31T15:32:44;101259.0;;;17.61;77.41
50652;BME280;61429;52.086;5.240;2022-10-31T15:34:25;101255.0;;;17.45;78.16
50652;BME280;61429;52.086;5.240;2022-10-31T15:36:05;101245.0;;;17.43;78.14
50652;BME280;61429;52.086;5.240;2022-10-31T15:39:18;101240.0;;;17.45;78.27
50652;BME280;61429;52.086;5.240;2022-10-31T15:40:57;101238.0;;;17.46;78.05
50652;BME280;61429;52.086;5.240;2022-10-31T15:42:39;101237.0;;;17.34;78.42
50652;BME280;61429;52.086;5.240;2022-10-31T15:46:02;101227.0;;;17.45;77.91
50652;BME280;61429;52.086;5.240;2022-10-31T15:47:45;101218.0;;;17.43;77.84
50652;BME280;61429;52.086;5.240;2022-10-31T15:49:31;101216.0;;;17.27;78.37
50652;BME280;61429;52.086;5.240;2022-10-31T15:51:12;101216.0;;;17.36;78.02
50652;BME280;61429;52.086;5.240;2022-10-31T15:52:50;101210.0;;;17.43;77.61
50652;BME280;61429;52.086;5.240;2022-10-31T15:56:05;101218.0;;;17.52;77.58
50652;BME280;61429;52.086;5.240;2022-10-31T15:57:45;101214.0;;;17.52;77.34
50652;BME280;61429;52.086;5.240;2022-10-31T15:59:25;101209.0;;;17.45;77.56
50652;BME280;61429;52.086;5.240;2022-10-31T16:02:42;101209.0;;;17.46;77.49
50652;BME280;61429;52.086;5.240;2022-10-31T16:04:21;101206.0;;;17.46;77.41
50652;BME280;61429;52.086;5.240;2022-10-31T16:06:01;101201.0;;;17.55;77.08
50652;BME280;61429;52.086;5.240;2022-10-31T16:07:48;101200.0;;;17.45;77.47
50652;BME280;61429;52.086;5.240;2022-10-31T16:11:16;101198.0;;;17.45;77.44
50652;BME280;61429;52.086;5.240;2022-10-31T16:12:56;101199.0;;;17.25;78.08
50652;BME280;61429;52.086;5.240;2022-10-31T16:14:38;101198.0;;;17.25;78.33
50652;BME280;61429;52.086;5.240;2022-10-31T16:16:16;101201.0;;;17.39;77.83
50652;BME280;61429;52.086;5.240;2022-10-31T16:17:53;101197.0;;;17.39;77.67
50652;BME280;61429;52.086;5.240;2022-10-31T16:21:10;101184.0;;;17.25;78.13
50652;BME280;61429;52.086;5.240;2022-10-31T16:22:49;101188.0;;;17.3;78.2
50652;BME280;61429;52.086;5.240;2022-10-31T16:24:29;101187.0;;;17.14;78.89
50652;BME280;61429;52.086;5.240;2022-10-31T16:27:48;101182.0;;;17.16;78.61
50652;BME280;61429;52.086;5.240;2022-10-31T16:29:28;101186.0;;;17.21;78.55
50652;BME280;61429;52.086;5.240;2022-10-31T16:31:14;101182.0;;;17.09;78.87
50652;BME280;61429;52.086;5.240;2022-10-31T16:32:53;101180.0;;;17.05;79.16
50652;BME280;61429;52.086;5.240;2022-10-31T16:36:30;101176.0;;;17.06;79.03
50652;BME280;61429;52.086;5.240;2022-10-31T16:38:08;101176.0;;;17.02;79.31
50652;BME280;61429;52.086;5.240;2022-10-31T16:39:44;101176.0;;;16.91;79.64
50652;BME280;61429;52.086;5.240;2022-10-31T16:41:20;101178.0;;;17.14;78.83
50652;BME280;61429;52.086;5.240;2022-10-31T16:44:35;101176.0;;;17.2;78.67
50652;BME280;61429;52.086;5.240;2022-10-31T16:46:14;101173.0;;;17.11;78.86
50652;BME280;61429;52.086;5.240;2022-10-31T16:48:03;101173.0;;;17.02;79.19
50652;BME280;61429;52.086;5.240;2022-10-31T16:49:41;101168.0;;;16.98;79.3
50652;BME280;61429;52.086;5.240;2022-10-31T16:52:55;101165.0;;;17.11;78.92
50652;BME280;61429;52.086;5.240;2022-10-31T16:54:31;101160.0;;;16.97;79.27
50652;BME280;61429;52.086;5.240;2022-10-31T16:56:19;101153.0;;;16.78;80.23
50652;BME280;61429;52.086;5.240;2022-10-31T16:58:03;101149.0;;;16.75;80.47
50652;BME280;61429;52.086;5.240;2022-10-31T16:59:45;101145.0;;;16.73;80.47
50652;BME280;61429;52.086;5.240;2022-10-31T17:03:05;101142.0;;;16.55;81.44
50652;BME280;61429;52.086;5.240;2022-10-31T17:04:41;101137.0;;;16.66;81.11
50652;BME280;61429;52.086;5.240;2022-10-31T17:06:17;101140.0;;;16.65;81.08
50652;BME280;61429;52.086;5.240;2022-10-31T17:09:30;101139.0;;;16.57;81.3
50652;BME280;61429;52.086;5.240;2022-10-31T17:11:08;101141.0;;;16.84;80.33